BYK weather

Bouaké Airport
Vallée du Bandama, Côte d'Ivoire

Public forecast

Using degrees Celsius for public forecast. Weather courtesy of forecast.io.

Current aviation weather report (METAR) for Bouaké Airport

Retrieved 2020/01/25 01:00 UTC (34 minutes ago):

DIBK 250100Z 14002KT 2000 HZ NSC 26/06 Q1015 NOSIG

Aviation forecast (TAF) for Bouaké Airport

Retrieved 2020-01-25 00:15 UTC (1 hour ago):

TAF TAF DIBK 242308Z 2500/2524 11008KT 2000 HZ NSC PROB30 TEMPO 2505/2508 4000 BR